createdAt,value
2023-01-22T00:01:19.280Z,3.44
2023-01-22T00:03:51.979Z,3.46
2023-01-22T00:06:22.041Z,3.63
2023-01-22T00:08:50.231Z,3.69
2023-01-22T00:11:19.809Z,3.65
2023-01-22T00:13:50.160Z,3.56
2023-01-22T00:16:19.145Z,3.62
2023-01-22T00:18:47.060Z,3.42
2023-01-22T00:21:14.946Z,3.48
2023-01-22T00:23:44.196Z,3.38
2023-01-22T00:26:14.098Z,3.55
2023-01-22T00:28:42.692Z,3.55
2023-01-22T00:31:12.887Z,3.63
2023-01-22T00:33:41.295Z,3.61
2023-01-22T00:36:11.799Z,3.60
2023-01-22T00:38:39.995Z,3.68
2023-01-22T00:41:09.801Z,3.78
2023-01-22T00:43:39.601Z,3.71
2023-01-22T00:46:08.030Z,3.64
2023-01-22T00:48:36.593Z,3.74
2023-01-22T00:51:04.637Z,3.95
2023-01-22T00:53:32.485Z,3.95
2023-01-22T00:56:02.263Z,3.91
2023-01-22T00:58:32.074Z,3.88
2023-01-22T01:01:01.856Z,3.77
2023-01-22T01:03:31.689Z,3.89
2023-01-22T01:06:01.564Z,3.86
2023-01-22T01:08:30.931Z,3.83
2023-01-22T01:11:00.473Z,3.79
2023-01-22T01:13:29.657Z,3.87
2023-01-22T01:16:03.518Z,3.91
2023-01-22T01:18:32.268Z,3.99
2023-01-22T01:21:01.318Z,3.83
2023-01-22T01:23:30.258Z,3.74
2023-01-22T01:25:58.153Z,3.74
2023-01-22T01:28:26.145Z,3.64
2023-01-22T01:30:54.043Z,3.75
2023-01-22T01:33:23.581Z,3.80
2023-01-22T01:36:00.200Z,3.85
2023-01-22T01:38:28.280Z,3.77
2023-01-22T01:40:56.198Z,3.81
2023-01-22T01:43:24.548Z,3.86
2023-01-22T01:45:52.479Z,3.89
2023-01-22T01:48:32.577Z,3.92
2023-01-22T01:51:06.113Z,3.95
2023-01-22T01:53:34.694Z,3.92
2023-01-22T01:56:04.812Z,3.77
2023-01-22T01:58:35.547Z,3.79
2023-01-22T02:01:11.741Z,3.77
2023-01-22T02:03:42.074Z,3.70
2023-01-22T02:06:12.484Z,3.71
2023-01-22T02:08:41.157Z,3.77
2023-01-22T02:11:09.945Z,3.82
2023-01-22T02:13:40.924Z,3.87
2023-01-22T02:16:10.495Z,3.77
2023-01-22T02:18:38.503Z,3.71
2023-01-22T02:21:42.161Z,3.76
2023-01-22T02:24:14.185Z,3.81
2023-01-22T02:26:43.437Z,3.70
2023-01-22T02:29:12.820Z,3.69
2023-01-22T02:31:42.388Z,3.73
2023-01-22T02:34:11.212Z,3.69
2023-01-22T02:36:40.727Z,3.77
2023-01-22T02:39:09.009Z,3.75
2023-01-22T02:41:38.434Z,3.75
2023-01-22T02:44:07.452Z,3.73
2023-01-22T02:46:35.672Z,3.70
2023-01-22T02:49:03.757Z,3.80
2023-01-22T02:51:31.604Z,3.85
2023-01-22T02:54:02.339Z,3.82
2023-01-22T02:56:30.252Z,3.77
2023-01-22T02:59:00.845Z,3.87
2023-01-22T03:01:28.840Z,3.83
2023-01-22T03:03:59.784Z,3.75
2023-01-22T03:06:29.689Z,3.82
2023-01-22T03:08:59.592Z,3.78
2023-01-22T03:11:29.706Z,3.86
2023-01-22T03:14:16.699Z,3.88
2023-01-22T03:17:02.553Z,3.92
2023-01-22T03:19:48.032Z,4.04
2023-01-22T03:22:16.679Z,3.97
2023-01-22T03:24:44.588Z,3.85
2023-01-22T03:27:12.498Z,3.72
2023-01-22T03:29:41.739Z,3.85
2023-01-22T03:32:09.764Z,3.98
2023-01-22T03:34:38.349Z,3.94
2023-01-22T03:37:06.844Z,3.84
2023-01-22T03:39:35.106Z,3.69
2023-01-22T03:42:03.074Z,3.77
2023-01-22T03:44:31.170Z,3.90
2023-01-22T03:47:00.471Z,3.92
2023-01-22T03:49:28.398Z,3.81
2023-01-22T03:51:57.522Z,3.90
2023-01-22T03:54:25.513Z,3.92
2023-01-22T03:56:53.480Z,3.89
2023-01-22T03:59:21.677Z,3.96
2023-01-22T04:01:50.869Z,3.88
2023-01-22T04:04:20.204Z,3.74
2023-01-22T04:06:48.070Z,3.76
2023-01-22T04:09:15.958Z,3.81
2023-01-22T04:11:43.943Z,3.88
2023-01-22T04:14:11.791Z,3.85
2023-01-22T04:16:39.638Z,3.85
2023-01-22T04:19:07.652Z,3.89
2023-01-22T04:21:37.010Z,3.99
2023-01-22T04:24:05.035Z,4.04
2023-01-22T04:26:32.912Z,3.92
2023-01-22T04:29:00.826Z,3.91
2023-01-22T04:31:28.756Z,3.96
2023-01-22T04:33:56.796Z,4.11
2023-01-22T04:36:24.653Z,4.07
2023-01-22T04:38:53.855Z,3.93
2023-01-22T04:41:21.793Z,3.98
2023-01-22T04:43:50.047Z,3.82
2023-01-22T04:46:17.960Z,3.77
2023-01-22T04:48:46.774Z,3.89
2023-01-22T04:51:14.603Z,3.94
2023-01-22T04:53:42.468Z,3.74
2023-01-22T04:56:11.771Z,3.82
2023-01-22T04:58:39.591Z,3.76
2023-01-22T05:01:07.537Z,3.76
2023-01-22T05:03:35.514Z,3.93
2023-01-22T05:06:04.083Z,3.91
2023-01-22T05:08:31.983Z,3.83
2023-01-22T05:11:02.201Z,3.86
2023-01-22T05:13:31.504Z,3.90
2023-01-22T05:15:59.382Z,3.87
2023-01-22T05:18:27.322Z,3.95
2023-01-22T05:20:55.937Z,4.08
2023-01-22T05:23:23.828Z,3.95
2023-01-22T05:25:52.280Z,3.98
2023-01-22T05:28:20.232Z,3.98
2023-01-22T05:30:50.802Z,4.09
2023-01-22T05:33:18.770Z,4.07
2023-01-22T05:35:46.560Z,4.11
2023-01-22T05:38:14.345Z,4.22
2023-01-22T05:40:42.275Z,4.15
2023-01-22T05:43:10.139Z,4.17
2023-01-22T05:45:37.992Z,4.07
2023-01-22T05:48:07.409Z,3.98
2023-01-22T05:50:35.303Z,3.92
2023-01-22T05:53:03.472Z,4.00
2023-01-22T05:55:31.446Z,4.02
2023-01-22T05:57:59.278Z,4.00
2023-01-22T06:00:27.875Z,4.09
2023-01-22T06:02:57.274Z,4.23
2023-01-22T06:05:26.579Z,4.30
2023-01-22T06:07:54.459Z,4.37
2023-01-22T06:10:22.490Z,4.30
2023-01-22T06:12:50.289Z,4.34
2023-01-22T06:15:18.261Z,4.32
2023-01-22T06:17:46.336Z,4.37
2023-01-22T06:20:14.205Z,4.22
2023-01-22T06:22:43.336Z,4.24
2023-01-22T06:25:11.249Z,4.35
2023-01-22T06:27:39.086Z,4.31
2023-01-22T06:30:08.126Z,4.32
2023-01-22T06:32:36.222Z,4.36
2023-01-22T06:35:04.138Z,4.34
2023-01-22T06:37:32.051Z,4.31
2023-01-22T06:40:01.398Z,4.33
2023-01-22T06:42:29.293Z,4.32
2023-01-22T06:44:57.200Z,4.43
2023-01-22T06:47:25.054Z,4.42
2023-01-22T06:49:52.883Z,4.32
2023-01-22T06:52:20.820Z,4.34
2023-01-22T06:54:48.881Z,4.31
2023-01-22T06:57:18.282Z,4.31
2023-01-22T06:59:46.080Z,4.33
2023-01-22T07:02:17.806Z,4.42
2023-01-22T07:04:45.675Z,4.46
2023-01-22T07:07:14.190Z,4.44
2023-01-22T07:09:42.145Z,4.45
2023-01-22T07:12:10.041Z,4.45
2023-01-22T07:14:39.319Z,4.27
2023-01-22T07:17:07.320Z,4.36
2023-01-22T07:19:35.172Z,4.42
2023-01-22T07:22:03.155Z,4.35
2023-01-22T07:24:31.252Z,4.43
2023-01-22T07:26:59.044Z,4.33
2023-01-22T07:29:27.115Z,4.33
2023-01-22T07:31:56.512Z,4.41
2023-01-22T07:34:24.444Z,4.48
2023-01-22T07:36:52.330Z,4.54
2023-01-22T07:39:20.286Z,4.52
2023-01-22T07:41:48.271Z,4.63
2023-01-22T07:44:16.391Z,4.40
2023-01-22T07:46:44.382Z,4.27
2023-01-22T07:49:13.683Z,4.40
2023-01-22T07:51:41.585Z,4.43
2023-01-22T07:54:09.545Z,4.44
2023-01-22T07:56:37.586Z,4.53
2023-01-22T07:59:06.017Z,4.50
2023-01-22T08:01:33.961Z,4.58
2023-01-22T08:04:01.809Z,4.61
2023-01-22T08:06:30.950Z,4.68
2023-01-22T08:08:59.429Z,4.71
2023-01-22T08:11:27.421Z,4.64
2023-01-22T08:13:55.548Z,4.63
2023-01-22T08:16:23.759Z,4.71
2023-01-22T08:18:51.656Z,4.76
2023-01-22T08:21:19.646Z,4.70
2023-01-22T08:23:49.505Z,4.53
2023-01-22T08:26:17.514Z,4.50
2023-01-22T08:28:45.511Z,4.57
2023-01-22T08:31:26.341Z,4.71
2023-01-22T08:33:55.572Z,4.87
2023-01-22T08:36:23.526Z,4.80
2023-01-22T08:38:52.986Z,4.68
2023-01-22T08:41:21.302Z,4.73
2023-01-22T08:43:50.003Z,4.80
2023-01-22T08:46:18.241Z,4.70
2023-01-22T08:48:46.268Z,4.69
2023-01-22T08:51:14.645Z,4.80
2023-01-22T08:53:42.786Z,4.69
2023-01-22T08:56:12.525Z,4.74
2023-01-22T08:58:40.584Z,4.81
2023-01-22T09:01:11.047Z,4.76
2023-01-22T09:03:39.007Z,4.75
2023-01-22T09:06:07.274Z,4.82
2023-01-22T09:08:35.411Z,4.74
2023-01-22T09:11:05.341Z,4.64
2023-01-22T09:13:34.870Z,4.78
2023-01-22T09:16:03.040Z,4.80
2023-01-22T09:18:30.996Z,4.89
2023-01-22T09:20:59.787Z,4.90
2023-01-22T09:23:27.761Z,4.82
2023-01-22T09:25:55.546Z,4.90
2023-01-22T09:28:23.480Z,4.96
2023-01-22T09:30:52.670Z,4.82
2023-01-22T09:33:20.516Z,4.93
2023-01-22T09:35:48.414Z,5.00
2023-01-22T09:38:16.518Z,4.93
2023-01-22T09:40:46.710Z,4.89
2023-01-22T09:43:26.552Z,4.96
2023-01-22T09:45:57.954Z,5.00
2023-01-22T09:48:33.849Z,5.05
2023-01-22T09:51:02.176Z,5.02
2023-01-22T09:53:31.585Z,5.16
2023-01-22T09:56:00.127Z,5.29
2023-01-22T09:58:31.708Z,5.33
2023-01-22T10:01:04.648Z,5.34
2023-01-22T10:03:35.718Z,5.31
2023-01-22T10:06:08.429Z,5.41
2023-01-22T10:08:41.179Z,5.28
2023-01-22T10:11:11.085Z,5.44
2023-01-22T10:13:40.833Z,5.46
2023-01-22T10:16:13.159Z,5.41
2023-01-22T10:18:44.923Z,5.43
2023-01-22T10:21:19.879Z,5.32
2023-01-22T10:23:50.157Z,5.43
2023-01-22T10:26:25.179Z,5.53
2023-01-22T10:28:56.476Z,5.62
2023-01-22T10:31:28.850Z,5.64
2023-01-22T10:33:58.850Z,5.66
2023-01-22T10:36:27.889Z,5.71
2023-01-22T10:39:12.416Z,5.69
2023-01-22T10:41:41.063Z,5.67
2023-01-22T10:44:19.895Z,5.77
2023-01-22T10:46:56.196Z,5.87
2023-01-22T10:49:28.909Z,5.65
2023-01-22T10:52:01.417Z,5.69
2023-01-22T10:54:33.508Z,5.82
2023-01-22T10:57:31.735Z,5.84
2023-01-22T11:00:24.718Z,5.74
2023-01-22T11:02:54.405Z,5.73
2023-01-22T11:05:24.750Z,5.78
2023-01-22T11:07:55.468Z,5.84
2023-01-22T11:10:26.985Z,5.90
2023-01-22T11:12:59.703Z,5.90
2023-01-22T11:15:37.938Z,5.92
2023-01-22T11:18:08.807Z,5.97
2023-01-22T11:20:46.940Z,5.94
2023-01-22T11:23:20.488Z,5.95
2023-01-22T11:25:57.803Z,5.89
2023-01-22T11:28:41.670Z,5.68
2023-01-22T11:31:27.113Z,5.82
2023-01-22T11:34:20.682Z,5.76
2023-01-22T11:36:56.404Z,5.87
2023-01-22T11:39:39.545Z,6.09
2023-01-22T11:42:22.973Z,6.01
2023-01-22T11:45:03.771Z,6.04
2023-01-22T11:47:50.162Z,6.07
2023-01-22T11:50:28.389Z,6.03
2023-01-22T11:53:22.517Z,6.07
2023-01-22T11:56:13.342Z,6.07
2023-01-22T11:58:51.019Z,6.11
2023-01-22T12:01:29.234Z,6.00
2023-01-22T12:04:28.630Z,6.16
2023-01-22T12:07:22.800Z,6.09
2023-01-22T12:10:02.611Z,6.17
2023-01-22T12:12:41.931Z,6.33
2023-01-22T12:15:33.833Z,6.40
2023-01-22T12:18:17.910Z,6.54
2023-01-22T12:21:09.601Z,6.56
2023-01-22T12:23:43.392Z,6.51
2023-01-22T12:26:15.869Z,6.70
2023-01-22T12:28:50.254Z,6.73
2023-01-22T12:31:24.560Z,6.63
2023-01-22T12:33:52.802Z,6.67
2023-01-22T12:36:24.085Z,6.70
2023-01-22T12:38:55.914Z,6.74
2023-01-22T12:41:45.517Z,6.68
2023-01-22T12:44:28.957Z,6.62
2023-01-22T12:47:06.085Z,6.56
2023-01-22T12:49:33.870Z,6.69
2023-01-22T12:52:01.695Z,6.78
2023-01-22T12:54:33.796Z,6.71
2023-01-22T12:57:13.858Z,6.82
2023-01-22T12:59:45.704Z,6.69
2023-01-22T13:02:35.769Z,6.83
2023-01-22T13:05:41.839Z,6.83
2023-01-22T13:08:35.490Z,6.78
2023-01-22T13:11:06.836Z,6.83
2023-01-22T13:13:39.906Z,6.88
2023-01-22T13:16:21.031Z,6.88
2023-01-22T13:18:51.312Z,6.85
2023-01-22T13:21:25.879Z,6.92
2023-01-22T13:23:59.830Z,6.91
2023-01-22T13:26:31.732Z,6.84
2023-01-22T13:29:01.687Z,6.83
2023-01-22T13:31:29.925Z,6.81
2023-01-22T13:34:05.183Z,6.72
2023-01-22T13:36:33.007Z,6.79
2023-01-22T13:39:03.637Z,6.85
2023-01-22T13:41:36.135Z,6.75
2023-01-22T13:44:05.244Z,6.83
2023-01-22T13:46:37.254Z,6.86
2023-01-22T13:49:08.077Z,6.85
2023-01-22T13:51:40.207Z,6.81
2023-01-22T13:54:08.777Z,6.73
2023-01-22T13:56:38.683Z,6.81
2023-01-22T13:59:16.594Z,6.91
2023-01-22T14:01:44.639Z,6.90
2023-01-22T14:04:34.466Z,6.77
2023-01-22T14:07:02.718Z,6.74
2023-01-22T14:09:32.833Z,6.80
2023-01-22T14:12:13.687Z,6.86
2023-01-22T14:14:43.314Z,6.90
2023-01-22T14:17:21.676Z,6.82
2023-01-22T14:19:49.576Z,6.78
2023-01-22T14:22:17.604Z,6.89
2023-01-22T14:24:45.607Z,6.68
2023-01-22T14:27:15.053Z,6.80
2023-01-22T14:29:42.942Z,6.83
2023-01-22T14:32:10.923Z,6.84
2023-01-22T14:34:38.862Z,6.79
2023-01-22T14:37:06.898Z,6.77
2023-01-22T14:39:35.097Z,6.81
2023-01-22T14:42:03.381Z,6.73
2023-01-22T14:44:33.698Z,6.65
2023-01-22T14:47:01.913Z,6.65
2023-01-22T14:49:29.736Z,6.73
2023-01-22T14:51:57.756Z,6.79
2023-01-22T14:54:26.097Z,6.80
2023-01-22T14:56:54.262Z,6.72
2023-01-22T14:59:22.100Z,6.79
2023-01-22T15:01:51.526Z,6.65
2023-01-22T15:04:19.336Z,6.63
2023-01-22T15:06:47.170Z,6.48
2023-01-22T15:09:15.110Z,6.48
2023-01-22T15:11:42.925Z,6.51
2023-01-22T15:14:10.804Z,6.42
2023-01-22T15:16:40.317Z,6.50
2023-01-22T15:19:09.608Z,6.62
2023-01-22T15:21:37.890Z,6.66
2023-01-22T15:24:06.615Z,6.60
2023-01-22T15:26:36.708Z,6.67
2023-01-22T15:29:06.274Z,6.64
2023-01-22T15:31:34.342Z,6.67
2023-01-22T15:34:03.344Z,6.59
2023-01-22T15:36:33.915Z,6.50
2023-01-22T15:39:01.739Z,6.43
2023-01-22T15:41:31.595Z,6.49
2023-01-22T15:44:02.475Z,6.42
2023-01-22T15:46:32.729Z,6.44
2023-01-22T15:49:01.325Z,6.48
2023-01-22T15:51:30.246Z,6.51
2023-01-22T15:54:01.205Z,6.58
2023-01-22T15:56:31.645Z,6.59
2023-01-22T15:59:00.169Z,6.67
2023-01-22T16:01:29.290Z,6.69
2023-01-22T16:03:57.554Z,6.69
2023-01-22T16:06:26.791Z,6.66
2023-01-22T16:08:57.629Z,6.55
2023-01-22T16:11:28.723Z,6.56
2023-01-22T16:13:56.962Z,6.67
2023-01-22T16:16:26.999Z,6.57
2023-01-22T16:18:55.370Z,6.56
2023-01-22T16:21:24.235Z,6.60
2023-01-22T16:23:55.000Z,6.55
2023-01-22T16:26:25.141Z,6.65
2023-01-22T16:28:55.757Z,6.51
2023-01-22T16:31:25.235Z,6.60
2023-01-22T16:33:55.861Z,6.58
2023-01-22T16:36:25.163Z,6.59
2023-01-22T16:38:53.650Z,6.39
2023-01-22T16:41:26.074Z,6.54
2023-01-22T16:43:57.789Z,6.59
2023-01-22T16:46:27.357Z,6.54
2023-01-22T16:49:02.729Z,6.45
2023-01-22T16:51:35.568Z,6.55
2023-01-22T16:54:03.780Z,6.56
2023-01-22T16:56:32.446Z,6.39
2023-01-22T16:59:02.290Z,6.51
2023-01-22T17:01:31.265Z,6.48
2023-01-22T17:04:00.417Z,6.48
2023-01-22T17:06:32.571Z,6.51
2023-01-22T17:09:01.143Z,6.51
2023-01-22T17:11:28.995Z,6.55
2023-01-22T17:13:56.920Z,6.52
2023-01-22T17:16:26.451Z,6.43
2023-01-22T17:18:55.499Z,6.45
2023-01-22T17:21:24.092Z,6.50
2023-01-22T17:23:51.923Z,6.56
2023-01-22T17:26:19.794Z,6.52
2023-01-22T17:28:47.756Z,6.53
2023-01-22T17:31:18.948Z,6.53
2023-01-22T17:33:48.630Z,6.45
2023-01-22T17:36:18.897Z,6.42
2023-01-22T17:38:46.953Z,6.39
2023-01-22T17:41:17.209Z,6.39
2023-01-22T17:43:46.551Z,6.40
2023-01-22T17:46:15.881Z,6.47
2023-01-22T17:48:44.836Z,6.53
2023-01-22T17:51:17.212Z,6.47
2023-01-22T17:53:46.529Z,6.45
2023-01-22T17:56:16.460Z,6.45
2023-01-22T17:58:45.941Z,6.44
2023-01-22T18:01:16.168Z,6.49
2023-01-22T18:03:44.319Z,6.61
2023-01-22T18:06:13.996Z,6.68
2023-01-22T18:08:42.500Z,6.65
2023-01-22T18:11:12.034Z,6.62
2023-01-22T18:13:40.325Z,6.51
2023-01-22T18:16:10.107Z,6.41
2023-01-22T18:18:38.099Z,6.42
2023-01-22T18:21:08.033Z,6.28
2023-01-22T18:23:37.227Z,6.34
2023-01-22T18:26:06.674Z,6.36
2023-01-22T18:28:35.124Z,6.45
2023-01-22T18:31:08.172Z,6.46
2023-01-22T18:33:37.677Z,6.38
2023-01-22T18:36:08.490Z,6.31
2023-01-22T18:38:38.331Z,6.30
2023-01-22T18:41:07.076Z,6.40
2023-01-22T18:43:35.162Z,6.46
2023-01-22T18:46:04.838Z,6.33
2023-01-22T18:48:32.743Z,6.46
2023-01-22T18:51:00.679Z,6.35
2023-01-22T18:53:29.724Z,6.29
2023-01-22T18:56:01.281Z,6.36
2023-01-22T18:58:31.156Z,6.28
2023-01-22T19:01:00.622Z,6.11
2023-01-22T19:03:28.533Z,5.96
2023-01-22T19:05:57.146Z,5.94
2023-01-22T19:08:24.990Z,6.03
2023-01-22T19:10:53.012Z,6.10
2023-01-22T19:13:22.450Z,6.08
2023-01-22T19:15:50.341Z,6.13
2023-01-22T19:18:18.204Z,6.03
2023-01-22T19:20:46.169Z,6.09
2023-01-22T19:23:13.974Z,6.19
2023-01-22T19:25:41.795Z,6.16
2023-01-22T19:28:09.785Z,6.18
2023-01-22T19:30:38.964Z,6.06
2023-01-22T19:33:06.876Z,6.07
2023-01-22T19:35:34.778Z,5.99
2023-01-22T19:38:02.581Z,6.10
2023-01-22T19:40:30.384Z,6.12
2023-01-22T19:42:58.312Z,6.07
2023-01-22T19:45:32.199Z,6.06
2023-01-22T19:48:02.022Z,6.08
2023-01-22T19:50:29.848Z,6.18
2023-01-22T19:52:57.699Z,6.14
2023-01-22T19:55:26.538Z,6.17
2023-01-22T19:57:55.183Z,6.25
2023-01-22T20:00:23.598Z,6.13
2023-01-22T20:02:51.574Z,6.23
2023-01-22T20:05:21.448Z,5.99
2023-01-22T20:07:49.504Z,5.94
2023-01-22T20:10:19.266Z,6.10
2023-01-22T20:12:50.684Z,6.29
2023-01-22T20:15:19.350Z,6.21
2023-01-22T20:17:47.364Z,6.13
2023-01-22T20:20:15.185Z,6.09
2023-01-22T20:22:44.604Z,6.09
2023-01-22T20:25:13.857Z,6.22
2023-01-22T20:27:41.673Z,6.29
2023-01-22T20:30:10.790Z,6.03
2023-01-22T20:32:38.688Z,5.94
2023-01-22T20:35:07.225Z,5.93
2023-01-22T20:37:35.212Z,5.99
2023-01-22T20:40:04.798Z,6.06
2023-01-22T20:42:32.809Z,6.06
2023-01-22T20:45:00.669Z,6.03
2023-01-22T20:47:28.511Z,6.10
2023-01-22T20:49:56.316Z,6.05
2023-01-22T20:52:24.266Z,5.89
2023-01-22T20:55:01.552Z,6.01
2023-01-22T20:57:32.328Z,6.07
2023-01-22T21:00:00.134Z,6.14
2023-01-22T21:02:28.039Z,6.19
2023-01-22T21:04:56.587Z,6.12
2023-01-22T21:07:24.370Z,6.15
2023-01-22T21:09:52.305Z,5.99
2023-01-22T21:12:20.360Z,5.90
2023-01-22T21:14:53.731Z,6.02
2023-01-22T21:17:22.177Z,6.08
2023-01-22T21:19:51.595Z,6.08
2023-01-22T21:22:19.477Z,6.06
2023-01-22T21:24:47.452Z,6.08
2023-01-22T21:27:15.275Z,6.09
2023-01-22T21:29:43.101Z,6.12
2023-01-22T21:32:12.440Z,6.18
2023-01-22T21:34:40.586Z,6.23
2023-01-22T21:37:08.433Z,6.15
2023-01-22T21:39:38.666Z,6.18
2023-01-22T21:42:23.802Z,6.25
2023-01-22T21:45:09.057Z,6.15
2023-01-22T21:47:38.260Z,6.11
2023-01-22T21:50:06.750Z,6.20
2023-01-22T21:52:34.757Z,6.19
2023-01-22T21:55:02.517Z,6.09
2023-01-22T21:57:30.411Z,6.22
2023-01-22T21:59:58.357Z,6.18
2023-01-22T22:02:27.194Z,6.04
2023-01-22T22:04:56.683Z,5.98
2023-01-22T22:07:24.501Z,5.87
2023-01-22T22:09:52.314Z,6.01
2023-01-22T22:12:20.144Z,5.98
2023-01-22T22:14:48.083Z,6.04
2023-01-22T22:17:15.904Z,6.10
2023-01-22T22:19:43.749Z,6.14
2023-01-22T22:22:13.047Z,6.14
2023-01-22T22:24:41.013Z,6.08
2023-01-22T22:27:08.864Z,6.13
2023-01-22T22:29:36.820Z,6.07
2023-01-22T22:32:04.762Z,6.02
2023-01-22T22:34:35.083Z,6.01
2023-01-22T22:37:03.014Z,6.01
2023-01-22T22:39:32.464Z,5.97
2023-01-22T22:42:00.315Z,5.92
2023-01-22T22:44:28.307Z,5.95
2023-01-22T22:46:56.330Z,5.93
2023-01-22T22:49:24.324Z,5.95
2023-01-22T22:51:52.417Z,5.90
2023-01-22T22:54:21.244Z,6.00
2023-01-22T22:56:51.249Z,5.91
2023-01-22T22:59:20.909Z,5.99
2023-01-22T23:01:49.412Z,6.03
2023-01-22T23:04:17.737Z,5.96
2023-01-22T23:06:46.802Z,5.87
2023-01-22T23:09:17.343Z,5.88
2023-01-22T23:11:47.414Z,5.99
2023-01-22T23:14:16.593Z,5.93
2023-01-22T23:16:45.166Z,5.99
2023-01-22T23:19:15.935Z,6.06
2023-01-22T23:21:44.444Z,6.05
2023-01-22T23:24:14.431Z,6.01
2023-01-22T23:26:43.878Z,6.04
2023-01-22T23:29:13.402Z,6.03
2023-01-22T23:31:42.887Z,6.09
2023-01-22T23:34:13.548Z,6.05
2023-01-22T23:36:44.279Z,6.06
2023-01-22T23:39:13.019Z,5.94
2023-01-22T23:41:40.849Z,5.92
2023-01-22T23:44:09.355Z,5.85
2023-01-22T23:46:37.439Z,5.92
2023-01-22T23:49:06.753Z,5.95
2023-01-22T23:51:34.740Z,5.96
2023-01-22T23:54:02.855Z,5.95
2023-01-22T23:56:31.830Z,5.90
2023-01-22T23:59:00.593Z,5.94
